createdAt,value
2017-04-26T00:00:03.239Z,997.32
2017-04-26T00:15:02.747Z,997.4
2017-04-26T00:30:02.407Z,997.47
2017-04-26T00:45:02.869Z,997.59
2017-04-26T01:00:03.339Z,997.37
2017-04-26T01:15:02.815Z,997.27
2017-04-26T01:30:02.518Z,997.5
2017-04-26T01:45:02.990Z,997.58
2017-04-26T02:00:02.479Z,997.41
2017-04-26T02:15:02.948Z,997.65
2017-04-26T02:30:02.659Z,997.69
2017-04-26T02:45:03.147Z,997.77
2017-04-26T03:00:02.596Z,997.74
2017-04-26T03:15:03.026Z,997.85
2017-04-26T03:30:02.841Z,998.04
2017-04-26T03:45:03.342Z,998.07
2017-04-26T04:00:02.787Z,997.89
2017-04-26T04:15:03.304Z,997.91
2017-04-26T04:30:02.977Z,998
2017-04-26T04:45:03.303Z,998.11
2017-04-26T05:00:02.885Z,998.08
2017-04-26T05:15:03.394Z,998.21
2017-04-26T05:30:02.902Z,998.32
2017-04-26T05:45:02.460Z,998.44
2017-04-26T06:00:03.016Z,998.57
2017-04-26T06:15:02.579Z,998.78
2017-04-26T06:30:03.327Z,998.84
2017-04-26T06:45:02.848Z,998.89
2017-04-26T07:00:03.387Z,998.93
2017-04-26T07:15:02.941Z,998.92
2017-04-26T07:30:02.680Z,998.92
2017-04-26T07:45:03.244Z,998.89
2017-04-26T08:00:02.798Z,998.88
2017-04-26T08:15:02.704Z,998.98
2017-04-26T08:30:03.041Z,998.97
2017-04-26T08:45:02.632Z,998.99
2017-04-26T09:00:03.207Z,999.16
2017-04-26T09:15:03.352Z,998.85
2017-04-26T09:30:03.389Z,999.12
2017-04-26T09:45:02.878Z,999.14
2017-04-26T10:00:03.358Z,999.08
2017-04-26T10:15:03.138Z,999.01
2017-04-26T10:30:02.895Z,998.94
2017-04-26T10:45:02.762Z,998.9
2017-04-26T11:00:03.174Z,998.93
2017-04-26T11:15:02.921Z,999.12
2017-04-26T11:30:02.598Z,998.71
2017-04-26T11:45:03.083Z,999.15
2017-04-26T12:00:02.582Z,999.11
2017-04-26T12:15:02.713Z,999.15
2017-04-26T12:30:02.696Z,999.02
2017-04-26T12:45:03.128Z,998.98
2017-04-26T13:00:02.571Z,999.18
2017-04-26T13:15:02.499Z,998.99
2017-04-26T13:30:03.359Z,999.09
2017-04-26T13:45:02.883Z,999.04
2017-04-26T14:00:02.809Z,999.2
2017-04-26T14:15:03.412Z,999.25
2017-04-26T14:30:03.165Z,999.19
2017-04-26T14:45:03.215Z,999.26
2017-04-26T15:00:02.733Z,999.2
2017-04-26T15:15:02.924Z,999.36
2017-04-26T15:30:02.587Z,999.49
2017-04-26T15:45:03.158Z,999.5
2017-04-26T16:00:02.888Z,999.67
2017-04-26T16:15:02.940Z,999.5
2017-04-26T16:30:03.318Z,999.63
2017-04-26T16:45:02.823Z,999.81
2017-04-26T17:00:03.480Z,999.69
2017-04-26T17:15:03.377Z,999.89
2017-04-26T17:30:03.099Z,999.97
2017-04-26T17:45:02.637Z,1000.2
2017-04-26T18:00:03.197Z,1000.35
2017-04-26T18:15:03.354Z,1000.33
2017-04-26T18:30:03.177Z,1000.47
2017-04-26T18:45:02.713Z,1000.53
2017-04-26T19:00:03.195Z,1000.54
2017-04-26T19:15:02.976Z,1000.79
2017-04-26T19:30:02.822Z,1001.02
2017-04-26T19:45:02.987Z,1001.14
2017-04-26T20:00:02.879Z,1001.21
2017-04-26T20:15:02.982Z,1001.29
2017-04-26T20:30:03.000Z,1001.42
2017-04-26T20:45:02.512Z,1001.66
2017-04-26T21:00:02.969Z,1001.63
2017-04-26T21:15:03.084Z,1001.64
2017-04-26T21:30:03.271Z,1001.75
2017-04-26T21:45:02.744Z,1001.8
2017-04-26T22:00:03.287Z,1001.72
2017-04-26T22:15:02.984Z,1001.92
2017-04-26T22:30:02.662Z,1001.91
2017-04-26T22:45:02.581Z,1002.1
2017-04-26T23:00:02.899Z,1002.22
2017-04-26T23:15:02.626Z,1002.2
2017-04-26T23:30:03.055Z,1002.21
2017-04-26T23:45:02.514Z,1002.1
